BIVO/VPN METAR and TAF weather

Enter ICAO airport designator
Station Type Date Time Source
BIVO METAR 2022/11/29 12:00 UTC NOAA

BIVO 291200Z VRB03KT CAVOK M03/M05 Q1012


Station Type Date Time Source
BIVO Decoded METAR 2022/11/29 12:00 UTC NOAA

Skjaldthingsstadir, Iceland (BIVO) 65-42N 014-49W 48M
Nov 29, 2022 - 07:00 AM EST / 2022.11.29 1200 UTC
Wind: Variable at 3 MPH (3 KT):0
Visibility: greater than 7 mile(s):0
Temperature: 26 F (-3 C)
Dew Point: 23 F (-5 C)
Relative Humidity: 86%
Pressure (altimeter): 29.88 in. Hg (1012 hPa)
ob: BIVO 291200Z VRB03KT CAVOK M03/M05 Q1012
cycle: 12

Station Type Date Time Source
BIVO TAF UTC NOAA

Error!

Example: see airport list